Time;durP1;ratioP1;P1;durP2;ratioP2;P2;SDS_P1;SDS_P2;PMS_P1;PMS_P2;Temp;Humidity;BMP_temperature;BMP_pressure;BME280_temperature;BME280_humidity;BME280_pressure;Samples;Min_cycle;Max_cycle;Signal;HPM_P1;HPM_P2
2024/01/25 00:01:58;;;;;;;22.77;11.82;;;21.00;38.90;;;;;;5112804;28;20072;-78
2024/01/25 00:04:24;;;;;;;20.05;10.85;;;21.10;39.00;;;;;;5112859;28;20123;-78
2024/01/25 00:06:51;;;;;;;19.67;11.85;;;21.00;38.80;;;;;;5112936;28;20174;-78
2024/01/25 00:09:17;;;;;;;23.67;11.40;;;21.10;38.90;;;;;;5112465;28;20032;-78
2024/01/25 00:11:43;;;;;;;21.30;11.65;;;21.00;38.90;;;;;;5094614;28;20070;-78
2024/01/25 00:14:09;;;;;;;16.63;10.57;;;21.10;38.90;;;;;;5112459;28;20164;-77
2024/01/25 00:16:35;;;;;;;19.95;10.25;;;21.10;38.90;;;;;;5059803;28;20081;-78
2024/01/25 00:19:01;;;;;;;18.70;11.00;;;21.10;38.90;;;;;;5093980;28;20035;-77
2024/01/25 00:21:27;;;;;;;21.77;11.70;;;21.10;39.00;;;;;;5112402;28;20124;-78
2024/01/25 00:23:53;;;;;;;24.52;12.10;;;21.10;39.00;;;;;;5112420;28;20036;-77
2024/01/25 00:26:19;;;;;;;23.27;11.23;;;21.00;39.00;;;;;;5112494;28;20035;-78
2024/01/25 00:28:45;;;;;;;21.98;10.95;;;21.10;39.30;;;;;;5112155;28;20479;-78
2024/01/25 00:31:12;;;;;;;24.33;11.68;;;21.00;39.00;;;;;;5094109;28;20100;-77
2024/01/25 00:33:38;;;;;;;20.63;11.35;;;21.10;39.10;;;;;;5093386;28;20090;-78
2024/01/25 00:36:05;;;;;;;21.50;11.70;;;21.00;39.20;;;;;;5112364;28;20388;-77
2024/01/25 00:38:31;;;;;;;24.13;12.07;;;21.00;39.20;;;;;;5111896;28;20099;-77
2024/01/25 00:40:57;;;;;;;17.48;10.30;;;21.00;39.10;;;;;;5094135;28;20035;-77
2024/01/25 00:43:24;;;;;;;22.08;11.70;;;21.00;39.20;;;;;;5111992;28;20107;-75
2024/01/25 00:45:50;;;;;;;18.15;10.85;;;21.00;38.80;;;;;;5111977;28;20031;-77
2024/01/25 00:48:16;;;;;;;20.95;11.73;;;21.00;38.90;;;;;;5112030;28;20035;-78
2024/01/25 00:50:43;;;;;;;22.33;12.57;;;21.10;39.30;;;;;;5093580;28;20036;-77
2024/01/25 00:53:09;;;;;;;18.30;11.07;;;21.10;39.40;;;;;;5111891;28;20074;-78
2024/01/25 00:55:35;;;;;;;17.13;11.40;;;21.00;39.20;;;;;;5112003;28;20118;-77
2024/01/25 00:58:03;;;;;;;17.08;11.30;;;21.00;39.00;;;;;;5111818;28;20130;-78
2024/01/25 01:00:29;;;;;;;19.55;10.90;;;21.00;39.00;;;;;;5058819;28;20039;-78
2024/01/25 01:02:58;;;;;;;20.23;10.38;;;21.10;39.10;;;;;;5111893;28;20031;-77
2024/01/25 01:05:25;;;;;;;19.63;11.18;;;21.00;39.00;;;;;;5094060;28;20042;-78
2024/01/25 01:07:51;;;;;;;19.35;10.40;;;21.30;39.20;;;;;;5111947;28;20524;-78
2024/01/25 01:10:17;;;;;;;22.05;11.93;;;21.20;39.10;;;;;;5093565;28;20046;-78
2024/01/25 01:12:43;;;;;;;18.10;10.30;;;21.10;39.00;;;;;;5111367;28;20134;-77
2024/01/25 01:15:10;;;;;;;21.13;10.52;;;21.20;39.10;;;;;;5111671;28;20123;-77
2024/01/25 01:17:36;;;;;;;15.10;10.05;;;21.10;39.10;;;;;;5111613;28;20039;-77
2024/01/25 01:20:02;;;;;;;21.38;10.63;;;21.20;39.10;;;;;;5093527;28;20063;-78
2024/01/25 01:22:28;;;;;;;14.90;9.00;;;21.30;39.10;;;;;;5111987;28;20825;-78
2024/01/25 01:24:55;;;;;;;15.43;9.23;;;21.30;39.30;;;;;;5111492;28;20450;-78
2024/01/25 01:27:21;;;;;;;18.67;9.27;;;21.30;39.30;;;;;;5093196;28;20086;-78
2024/01/25 01:29:47;;;;;;;14.40;8.32;;;21.10;39.20;;;;;;5093435;28;20066;-77
2024/01/25 01:32:13;;;;;;;12.15;7.78;;;21.10;39.30;;;;;;5111508;28;20035;-77
2024/01/25 01:34:40;;;;;;;14.32;8.05;;;21.20;39.30;;;;;;5110871;28;20042;-78
2024/01/25 01:37:06;;;;;;;12.15;6.65;;;21.10;39.40;;;;;;5129491;27;20066;-77
2024/01/25 01:39:32;;;;;;;12.55;6.43;;;21.10;39.30;;;;;;5113263;28;20035;-76
2024/01/25 01:41:58;;;;;;;11.57;6.60;;;21.10;39.30;;;;;;5132140;27;20031;-78
2024/01/25 01:44:24;;;;;;;15.60;8.13;;;21.10;39.40;;;;;;5132242;28;20027;-78
2024/01/25 01:46:50;;;;;;;11.23;6.80;;;21.00;39.30;;;;;;5113774;28;20494;-78
2024/01/25 01:49:17;;;;;;;10.90;6.40;;;21.10;39.40;;;;;;5111722;28;20088;-77
2024/01/25 01:51:43;;;;;;;7.10;4.90;;;21.00;39.40;;;;;;5111474;28;20047;-78
2024/01/25 01:54:10;;;;;;;8.73;5.20;;;21.10;39.40;;;;;;5093118;28;20035;-78
2024/01/25 01:56:37;;;;;;;7.25;4.88;;;21.10;39.60;;;;;;5111167;28;20399;-78
2024/01/25 01:59:08;;;;;;;7.47;5.30;;;21.10;39.50;;;;;;5111349;28;20544;-78
2024/01/25 02:01:34;;;;;;;7.68;4.60;;;21.20;39.60;;;;;;5093138;28;20036;-78
2024/01/25 02:04:00;;;;;;;9.85;6.30;;;21.20;39.50;;;;;;5093012;28;20038;-78
2024/01/25 02:06:27;;;;;;;12.85;7.03;;;21.20;39.50;;;;;;5111358;28;20043;-78
2024/01/25 02:08:53;;;;;;;13.27;6.82;;;21.10;39.50;;;;;;5111200;28;20031;-77
2024/01/25 02:11:20;;;;;;;11.50;6.45;;;21.20;39.60;;;;;;5075463;28;20344;-78
2024/01/25 02:13:47;;;;;;;7.95;4.97;;;21.30;39.70;;;;;;5087998;28;20492;-78
2024/01/25 02:16:14;;;;;;;11.32;6.25;;;21.20;39.60;;;;;;5088464;28;20381;-78
2024/01/25 02:18:41;;;;;;;8.07;5.13;;;21.20;39.50;;;;;;5088073;28;20093;-77
2024/01/25 02:21:07;;;;;;;13.65;8.70;;;20.90;39.30;;;;;;5091048;28;20032;-77
2024/01/25 02:23:33;;;;;;;11.50;7.45;;;21.20;39.40;;;;;;5092090;28;20488;-78
2024/01/25 02:26:00;;;;;;;8.50;5.18;;;21.20;39.40;;;;;;5091730;28;20059;-77
2024/01/25 02:28:26;;;;;;;6.78;4.65;;;21.30;39.70;;;;;;5091289;28;20135;-78
2024/01/25 02:30:52;;;;;;;9.63;4.93;;;21.20;39.50;;;;;;5091702;28;20089;-77
2024/01/25 02:33:18;;;;;;;6.03;4.45;;;21.10;39.60;;;;;;5057925;28;20116;-76
2024/01/25 02:35:44;;;;;;;7.43;4.38;;;21.20;39.60;;;;;;5051083;28;20040;-78
2024/01/25 02:38:11;;;;;;;8.10;4.47;;;21.30;39.80;;;;;;5051024;28;20109;-79
2024/01/25 02:40:37;;;;;;;8.52;5.05;;;21.20;39.70;;;;;;5050900;28;20037;-78
2024/01/25 02:43:03;;;;;;;8.02;4.60;;;21.20;39.70;;;;;;5051458;28;20119;-78
2024/01/25 02:45:29;;;;;;;8.00;4.35;;;21.20;39.60;;;;;;5067395;28;20044;-77
2024/01/25 02:47:55;;;;;;;5.63;4.35;;;21.10;39.70;;;;;;5071261;28;20247;-78
2024/01/25 02:50:21;;;;;;;7.82;4.93;;;21.10;39.70;;;;;;5071111;28;20040;-77
2024/01/25 02:52:47;;;;;;;8.27;5.47;;;21.10;39.70;;;;;;5071337;28;20555;-77
2024/01/25 02:55:14;;;;;;;12.77;7.30;;;21.00;39.70;;;;;;5071058;28;20043;-78
2024/01/25 02:57:40;;;;;;;14.60;8.52;;;21.10;39.70;;;;;;5071326;28;20555;-78
2024/01/25 03:00:06;;;;;;;11.05;7.28;;;21.10;39.70;;;;;;5071122;28;20044;-76
2024/01/25 03:02:32;;;;;;;13.85;7.53;;;21.10;39.60;;;;;;5054310;28;20409;-78
2024/01/25 03:04:58;;;;;;;15.57;6.93;;;21.10;39.60;;;;;;5070988;28;20261;-78
2024/01/25 03:07:24;;;;;;;5.72;3.83;;;21.20;39.70;;;;;;5070846;28;20155;-77
2024/01/25 03:09:51;;;;;;;2.97;2.50;;;21.20;39.60;;;;;;5037520;28;20098;-79
2024/01/25 03:12:17;;;;;;;5.65;3.25;;;21.20;39.70;;;;;;5076588;28;20061;-78
2024/01/25 03:14:46;;;;;;;3.28;2.53;;;21.30;39.80;;;;;;5114024;28;20114;-77
2024/01/25 03:17:12;;;;;;;2.45;1.75;;;21.10;39.70;;;;;;5113710;28;20029;-78
2024/01/25 03:19:39;;;;;;;3.90;2.25;;;21.20;39.60;;;;;;5095316;28;20390;-77
2024/01/25 03:22:05;;;;;;;3.05;2.03;;;21.30;39.70;;;;;;5095442;28;20039;-78
2024/01/25 03:24:31;;;;;;;1.75;1.63;;;21.20;39.60;;;;;;5053471;28;20438;-77
2024/01/25 03:26:57;;;;;;;3.08;1.90;;;21.20;39.70;;;;;;5070463;28;20037;-78
2024/01/25 03:29:23;;;;;;;3.10;1.45;;;21.30;39.70;;;;;;5069997;28;20135;-77
2024/01/25 03:31:50;;;;;;;1.45;1.35;;;21.20;39.70;;;;;;5069369;28;20036;-78
2024/01/25 03:34:16;;;;;;;2.35;1.80;;;21.10;39.70;;;;;;5070173;28;20534;-78
2024/01/25 03:36:42;;;;;;;5.40;2.92;;;21.20;39.70;;;;;;5070353;28;20460;-78
2024/01/25 03:39:08;;;;;;;5.43;3.13;;;21.10;39.60;;;;;;5084813;28;20067;-77
2024/01/25 03:41:34;;;;;;;3.75;3.28;;;21.30;39.70;;;;;;5090498;28;20483;-77
2024/01/25 03:44:01;;;;;;;3.92;3.00;;;21.10;39.70;;;;;;5090557;28;20043;-78
2024/01/25 03:46:27;;;;;;;4.30;3.28;;;21.10;39.50;;;;;;5082956;28;20110;-78
2024/01/25 03:48:54;;;;;;;3.08;2.22;;;21.20;39.50;;;;;;5070156;28;20119;-78
2024/01/25 03:51:20;;;;;;;2.45;2.00;;;21.10;39.50;;;;;;5069756;28;20057;-78
2024/01/25 03:53:46;;;;;;;2.72;1.73;;;21.10;39.70;;;;;;5069822;28;20098;-77
2024/01/25 03:56:13;;;;;;;4.65;1.98;;;21.20;39.80;;;;;;5103658;28;20032;-77
2024/01/25 03:58:39;;;;;;;3.15;2.25;;;21.30;39.80;;;;;;5113173;28;20475;-76
2024/01/25 04:01:05;;;;;;;2.05;1.75;;;21.30;39.80;;;;;;5112865;28;20066;-78
2024/01/25 04:03:31;;;;;;;2.60;2.25;;;21.10;39.70;;;;;;5112748;28;20032;-78
2024/01/25 04:05:57;;;;;;;2.72;1.98;;;21.30;39.80;;;;;;5094392;28;20035;-78
2024/01/25 04:08:24;;;;;;;2.42;1.95;;;21.30;39.80;;;;;;5094389;28;20116;-77
2024/01/25 04:10:50;;;;;;;3.17;2.05;;;21.20;39.70;;;;;;5112778;28;20032;-78
2024/01/25 04:13:16;;;;;;;2.55;2.00;;;21.30;39.80;;;;;;5112454;28;20042;-78
2024/01/25 04:15:42;;;;;;;2.35;1.85;;;21.40;39.80;;;;;;5094750;28;20034;-78
2024/01/25 04:18:08;;;;;;;3.53;1.77;;;21.30;39.70;;;;;;5112548;28;20395;-77
2024/01/25 04:20:34;;;;;;;3.47;2.13;;;21.30;39.70;;;;;;5112643;28;20107;-77
2024/01/25 04:23:01;;;;;;;3.63;2.83;;;21.30;39.80;;;;;;5112262;28;20038;-78
2024/01/25 04:25:27;;;;;;;3.70;2.55;;;21.30;39.80;;;;;;5112470;28;20449;-77
2024/01/25 04:27:53;;;;;;;5.25;2.67;;;21.30;39.80;;;;;;5112475;28;20459;-78
2024/01/25 04:30:19;;;;;;;5.25;2.85;;;21.30;39.60;;;;;;5094175;28;20085;-78
2024/01/25 04:32:45;;;;;;;2.72;2.13;;;21.20;39.60;;;;;;5112352;28;20046;-78
2024/01/25 04:35:11;;;;;;;3.88;2.35;;;21.20;39.60;;;;;;5112171;28;20043;-78
2024/01/25 04:37:37;;;;;;;4.03;2.03;;;21.40;39.60;;;;;;5113473;28;20055;-75
2024/01/25 04:40:05;;;;;;;3.97;2.25;;;21.20;39.60;;;;;;5112433;28;20032;-77
2024/01/25 04:42:31;;;;;;;2.38;1.67;;;21.20;39.70;;;;;;5114212;28;20462;-78
2024/01/25 04:44:57;;;;;;;2.58;1.70;;;21.10;39.70;;;;;;5111998;28;20051;-77
2024/01/25 04:47:23;;;;;;;5.18;1.80;;;21.10;39.70;;;;;;5093693;28;20031;-78
2024/01/25 04:49:49;;;;;;;2.30;1.95;;;21.20;39.80;;;;;;5093927;28;20082;-78
2024/01/25 04:52:15;;;;;;;2.83;1.77;;;21.20;39.70;;;;;;5112164;28;20065;-78
2024/01/25 04:54:41;;;;;;;1.98;1.60;;;21.20;39.70;;;;;;5112099;28;20139;-77
2024/01/25 04:57:07;;;;;;;3.15;1.85;;;21.30;39.70;;;;;;5093794;28;20031;-78
2024/01/25 04:59:33;;;;;;;2.35;1.65;;;21.20;39.70;;;;;;5111934;28;20027;-78
2024/01/25 05:02:00;;;;;;;3.50;2.00;;;21.20;39.70;;;;;;5111553;28;20036;-78
2024/01/25 05:04:27;;;;;;;2.58;1.88;;;21.30;39.80;;;;;;5111719;28;20360;-77
2024/01/25 05:06:54;;;;;;;3.55;1.88;;;21.20;39.70;;;;;;5093649;28;20032;-77
2024/01/25 05:09:20;;;;;;;2.55;1.75;;;21.30;39.80;;;;;;5111875;28;20039;-78
2024/01/25 05:11:46;;;;;;;1.95;1.70;;;21.40;39.70;;;;;;5093239;28;20359;-78
2024/01/25 05:14:12;;;;;;;2.25;1.70;;;21.30;39.80;;;;;;5111920;28;20104;-78
2024/01/25 05:16:38;;;;;;;2.22;1.60;;;21.20;39.70;;;;;;5111955;28;20433;-78
2024/01/25 05:19:04;;;;;;;3.22;2.33;;;21.40;39.80;;;;;;5111611;28;20024;-77
2024/01/25 05:21:31;;;;;;;2.72;2.42;;;21.20;39.70;;;;;;5111469;28;20038;-77
2024/01/25 05:23:57;;;;;;;5.22;3.08;;;21.30;39.80;;;;;;5093637;28;20042;-78
2024/01/25 05:26:23;;;;;;;5.18;2.85;;;21.20;39.70;;;;;;5093238;28;20031;-77
2024/01/25 05:28:50;;;;;;;3.08;1.80;;;21.30;39.80;;;;;;5111524;28;20056;-77
2024/01/25 05:31:16;;;;;;;2.67;1.85;;;21.30;39.70;;;;;;5111572;28;20034;-78
2024/01/25 05:33:42;;;;;;;3.10;1.77;;;21.20;39.60;;;;;;5111758;28;20035;-78
2024/01/25 05:36:09;;;;;;;2.05;1.70;;;21.30;39.80;;;;;;5094325;28;20367;-78
2024/01/25 05:38:35;;;;;;;3.20;2.08;;;21.20;39.70;;;;;;5088592;28;20622;-77
2024/01/25 05:41:02;;;;;;;2.58;1.75;;;21.20;39.60;;;;;;5088525;28;20473;-78
2024/01/25 05:43:28;;;;;;;3.33;1.98;;;21.20;39.80;;;;;;5088523;28;20072;-78
2024/01/25 05:45:54;;;;;;;3.22;2.17;;;21.20;39.70;;;;;;5088735;28;20051;-78
2024/01/25 05:48:20;;;;;;;2.17;1.98;;;21.20;39.70;;;;;;5088840;28;20048;-78
2024/01/25 05:50:46;;;;;;;3.63;2.03;;;21.30;39.90;;;;;;5088106;28;20030;-77
2024/01/25 05:53:13;;;;;;;3.47;2.47;;;21.20;39.70;;;;;;5088423;28;20056;-78
2024/01/25 05:55:39;;;;;;;2.40;2.05;;;21.30;39.80;;;;;;5073619;28;20055;-78
2024/01/25 05:58:05;;;;;;;2.67;2.00;;;21.20;39.60;;;;;;5092385;28;20055;-78
2024/01/25 06:00:31;;;;;;;2.22;1.67;;;21.40;39.70;;;;;;5092387;28;20036;-78
2024/01/25 06:02:57;;;;;;;3.60;1.90;;;21.30;39.70;;;;;;5092396;28;20044;-78
2024/01/25 06:05:23;;;;;;;3.15;1.92;;;21.30;39.80;;;;;;5092139;28;20063;-77
2024/01/25 06:07:50;;;;;;;4.05;2.38;;;21.30;39.80;;;;;;5092362;28;20043;-78
2024/01/25 06:10:16;;;;;;;2.20;2.00;;;21.30;39.70;;;;;;5096369;28;20070;-78
2024/01/25 06:12:42;;;;;;;2.90;2.05;;;21.30;39.70;;;;;;5114976;28;20035;-77
2024/01/25 06:15:09;;;;;;;3.17;2.17;;;21.40;39.50;;;;;;5115099;28;20028;-78
2024/01/25 06:17:35;;;;;;;3.75;2.33;;;21.30;39.60;;;;;;5114805;28;20107;-78
2024/01/25 06:20:01;;;;;;;2.05;1.63;;;21.20;39.40;;;;;;5115182;28;20408;-78
2024/01/25 06:22:27;;;;;;;2.40;1.85;;;21.30;39.50;;;;;;5096166;28;20475;-75
2024/01/25 06:24:53;;;;;;;4.38;2.45;;;21.30;39.60;;;;;;5115047;28;20030;-78
2024/01/25 06:27:19;;;;;;;2.80;1.80;;;21.30;39.60;;;;;;5114598;28;20038;-79
2024/01/25 06:29:45;;;;;;;3.33;2.40;;;21.10;39.50;;;;;;5114571;28;20501;-77
2024/01/25 06:32:11;;;;;;;3.97;3.17;;;21.30;39.50;;;;;;5114544;28;20035;-77
2024/01/25 06:34:37;;;;;;;2.75;2.30;;;21.20;39.30;;;;;;5114805;28;20038;-78
2024/01/25 06:37:04;;;;;;;3.72;2.35;;;21.30;39.60;;;;;;5114954;28;20035;-78
2024/01/25 06:39:30;;;;;;;3.45;1.98;;;21.20;39.40;;;;;;5114653;28;20059;-77
2024/01/25 06:41:56;;;;;;;2.63;2.30;;;21.20;39.50;;;;;;5114353;28;20031;-78
2024/01/25 06:44:22;;;;;;;4.93;3.15;;;21.20;39.40;;;;;;5114380;28;20188;-78
2024/01/25 06:46:48;;;;;;;5.75;3.42;;;21.20;39.40;;;;;;5114445;28;20526;-78
2024/01/25 06:49:14;;;;;;;9.13;4.07;;;21.20;39.40;;;;;;5114471;28;20055;-77
2024/01/25 06:51:40;;;;;;;5.28;3.90;;;21.20;39.40;;;;;;5096345;28;20394;-78
2024/01/25 06:54:06;;;;;;;7.93;4.40;;;21.20;39.30;;;;;;5114318;28;20031;-78
2024/01/25 06:56:34;;;;;;;4.50;3.08;;;21.30;39.40;;;;;;5114171;28;20035;-77
2024/01/25 06:59:00;;;;;;;5.65;3.38;;;21.30;39.60;;;;;;5114332;28;20035;-78
2024/01/25 07:01:27;;;;;;;8.95;4.03;;;21.30;39.60;;;;;;5079000;28;20040;-78
2024/01/25 07:03:53;;;;;;;8.70;3.92;;;21.20;39.50;;;;;;5114090;28;20084;-78
2024/01/25 07:06:19;;;;;;;5.93;4.82;;;21.20;39.50;;;;;;5113821;28;20024;-78
2024/01/25 07:08:46;;;;;;;5.97;3.83;;;21.30;39.60;;;;;;5095853;28;20054;-78
2024/01/25 07:11:12;;;;;;;7.30;4.50;;;21.30;39.60;;;;;;5095501;28;20138;-78
2024/01/25 07:13:40;;;;;;;10.55;3.95;;;21.40;39.60;;;;;;5070376;28;20036;-78
2024/01/25 07:16:06;;;;;;;8.15;4.53;;;21.30;39.40;;;;;;5071126;28;20110;-78
2024/01/25 07:18:32;;;;;;;6.03;4.50;;;21.30;39.40;;;;;;5070611;28;20041;-78
2024/01/25 07:20:58;;;;;;;7.60;4.78;;;21.20;39.20;;;;;;5070837;28;20408;-78
2024/01/25 07:23:26;;;;;;;9.25;4.40;;;21.20;39.30;;;;;;5053910;28;20047;-76
2024/01/25 07:25:53;;;;;;;7.38;4.18;;;21.30;39.50;;;;;;5070900;28;20052;-78
2024/01/25 07:28:19;;;;;;;7.43;4.32;;;21.10;39.50;;;;;;5072571;28;20052;-78
2024/01/25 07:30:47;;;;;;;7.00;4.75;;;21.20;39.40;;;;;;5053787;28;20487;-77
2024/01/25 07:33:14;;;;;;;6.35;4.90;;;21.20;39.40;;;;;;5070411;28;20053;-78
2024/01/25 07:35:45;;;;;;;6.50;4.82;;;21.20;39.40;;;;;;5070363;28;20116;-78
2024/01/25 07:38:12;;;;;;;9.63;4.90;;;21.20;39.40;;;;;;5020121;28;20061;-77
2024/01/25 07:40:39;;;;;;;6.80;4.60;;;21.10;39.40;;;;;;5070323;28;20460;-77
2024/01/25 07:43:05;;;;;;;6.28;4.68;;;21.10;39.50;;;;;;5070090;28;20028;-77
2024/01/25 07:45:32;;;;;;;9.25;4.80;;;21.10;39.40;;;;;;5089675;28;20151;-78
2024/01/25 07:47:58;;;;;;;8.35;4.95;;;21.10;39.40;;;;;;5092916;28;20032;-77
2024/01/25 07:50:24;;;;;;;7.28;4.93;;;21.20;39.50;;;;;;5092952;28;20043;-78
2024/01/25 07:52:50;;;;;;;8.15;5.25;;;21.30;39.50;;;;;;5092348;28;20174;-78
2024/01/25 07:55:17;;;;;;;6.63;4.80;;;21.10;39.30;;;;;;5105154;28;20515;-78
2024/01/25 07:57:43;;;;;;;9.85;5.15;;;21.10;39.50;;;;;;5112927;28;20483;-78
2024/01/25 08:00:09;;;;;;;7.75;5.18;;;21.30;39.50;;;;;;5094595;28;20102;-78
2024/01/25 08:02:41;;;;;;;11.65;6.18;;;21.20;39.50;;;;;;5112818;28;20562;-78
2024/01/25 08:05:07;;;;;;;10.15;5.47;;;21.30;39.60;;;;;;5094333;28;20039;-78
2024/01/25 08:07:36;;;;;;;8.82;5.07;;;21.20;39.60;;;;;;5072964;28;20044;-78
2024/01/25 08:10:04;;;;;;;7.60;5.10;;;21.30;39.60;;;;;;5089794;28;20048;-78
2024/01/25 08:12:30;;;;;;;8.30;5.55;;;21.20;39.40;;;;;;5072546;28;20056;-78
2024/01/25 08:14:56;;;;;;;9.48;5.10;;;21.20;39.50;;;;;;5090082;28;20117;-78
2024/01/25 08:17:22;;;;;;;7.75;5.15;;;21.20;39.40;;;;;;5089445;28;20097;-78
2024/01/25 08:19:48;;;;;;;10.15;5.28;;;21.20;39.60;;;;;;5089885;28;20086;-77
2024/01/25 08:22:15;;;;;;;7.78;4.05;;;21.20;39.60;;;;;;5089704;28;20103;-77
2024/01/25 08:24:41;;;;;;;7.80;4.38;;;21.20;39.60;;;;;;5072503;28;20429;-78
2024/01/25 08:27:10;;;;;;;10.50;4.30;;;21.20;39.60;;;;;;5072431;28;20367;-78
2024/01/25 08:29:37;;;;;;;4.75;3.22;;;21.30;39.70;;;;;;5089739;28;20503;-78
2024/01/25 08:32:03;;;;;;;6.50;3.33;;;21.20;39.60;;;;;;5089271;28;20056;-79
2024/01/25 08:34:29;;;;;;;6.13;3.70;;;21.10;39.70;;;;;;5089380;28;20085;-78
2024/01/25 08:36:55;;;;;;;7.00;3.08;;;21.10;39.70;;;;;;5089437;28;20051;-77
2024/01/25 08:39:21;;;;;;;5.28;2.63;;;21.10;39.70;;;;;;5089610;28;20047;-78
2024/01/25 08:41:49;;;;;;;2.03;1.75;;;21.30;39.90;;;;;;5089817;28;20443;-78
2024/01/25 08:44:16;;;;;;;2.17;1.80;;;21.10;39.70;;;;;;5076740;28;20457;-77
2024/01/25 08:46:43;;;;;;;2.00;1.80;;;21.20;39.70;;;;;;5093988;28;20048;-77
2024/01/25 08:49:11;;;;;;;1.98;1.50;;;21.20;39.70;;;;;;5111956;28;20066;-78
2024/01/25 08:51:38;;;;;;;2.55;2.10;;;21.20;39.70;;;;;;5093558;28;20089;-78
2024/01/25 08:54:04;;;;;;;1.60;1.50;;;21.20;39.70;;;;;;5076560;28;20079;-78
2024/01/25 08:56:31;;;;;;;2.15;1.55;;;21.30;39.80;;;;;;5094040;28;20184;-77
2024/01/25 08:58:57;;;;;;;2.42;1.95;;;21.20;39.70;;;;;;5112215;28;20063;-78
2024/01/25 09:01:23;;;;;;;2.10;1.67;;;21.30;39.70;;;;;;5076596;28;20118;-78
2024/01/25 09:03:49;;;;;;;3.75;2.00;;;21.30;39.70;;;;;;5112030;28;20035;-79
2024/01/25 09:06:16;;;;;;;1.73;1.48;;;21.40;39.70;;;;;;5093388;28;20043;-78
2024/01/25 09:08:42;;;;;;;4.57;2.10;;;21.30;39.60;;;;;;5111943;28;20040;-78
2024/01/25 09:11:08;;;;;;;3.17;1.83;;;21.30;39.60;;;;;;5111764;28;20024;-77
2024/01/25 09:13:34;;;;;;;3.22;1.88;;;21.40;39.60;;;;;;5111718;28;20161;-77
2024/01/25 09:16:00;;;;;;;3.13;1.73;;;21.30;39.60;;;;;;5075775;28;20066;-78
2024/01/25 09:18:26;;;;;;;2.63;2.13;;;21.30;39.60;;;;;;5111339;28;20031;-77
2024/01/25 09:20:53;;;;;;;3.80;2.17;;;21.30;39.60;;;;;;5111309;28;20046;-78
2024/01/25 09:23:20;;;;;;;2.95;2.05;;;21.30;39.60;;;;;;5111309;28;20031;-77
2024/01/25 09:25:46;;;;;;;1.95;1.80;;;21.40;39.60;;;;;;5111385;28;20036;-78
2024/01/25 09:28:12;;;;;;;3.38;1.83;;;21.30;39.60;;;;;;5111669;28;20056;-78
2024/01/25 09:30:39;;;;;;;3.63;2.17;;;21.30;39.60;;;;;;5116135;27;20475;-76
2024/01/25 09:33:06;;;;;;;3.72;1.83;;;21.30;39.60;;;;;;5097383;28;20031;-78
2024/01/25 09:35:33;;;;;;;2.63;1.60;;;21.40;39.60;;;;;;5097780;28;20038;-78
2024/01/25 09:37:59;;;;;;;3.00;1.65;;;21.30;39.60;;;;;;5115765;28;20040;-77
2024/01/25 09:40:25;;;;;;;1.83;1.50;;;21.30;39.70;;;;;;5115660;28;20479;-78
2024/01/25 09:42:52;;;;;;;3.80;1.70;;;21.30;39.70;;;;;;5115552;28;20433;-78
2024/01/25 09:45:19;;;;;;;2.15;1.80;;;21.40;39.70;;;;;;5115711;28;20080;-78
2024/01/25 09:47:45;;;;;;;2.63;1.75;;;21.40;39.60;;;;;;5115491;28;20032;-78
2024/01/25 09:50:12;;;;;;;2.65;1.70;;;21.30;39.70;;;;;;5096963;28;20019;-77
2024/01/25 09:52:38;;;;;;;3.78;2.90;;;21.30;39.60;;;;;;5115368;28;20066;-78
2024/01/25 09:55:07;;;;;;;5.72;3.35;;;21.20;39.60;;;;;;5115444;28;20020;-78
2024/01/25 09:57:38;;;;;;;4.15;3.05;;;21.40;39.70;;;;;;5097393;28;20138;-78
2024/01/25 10:00:11;;;;;;;8.77;2.92;;;21.40;39.70;;;;;;5097026;28;20463;-77
2024/01/25 10:02:38;;;;;;;5.03;3.17;;;21.30;39.70;;;;;;5096900;28;20394;-77
2024/01/25 10:05:04;;;;;;;3.13;1.98;;;21.30;39.70;;;;;;5097100;28;20037;-77
2024/01/25 10:07:40;;;;;;;3.38;2.47;;;21.30;39.60;;;;;;5115187;28;20066;-78
2024/01/25 10:10:08;;;;;;;5.88;2.70;;;21.40;39.60;;;;;;5114926;28;20089;-75
2024/01/25 10:12:34;;;;;;;4.50;3.22;;;21.40;39.60;;;;;;5114932;28;20475;-77
2024/01/25 10:15:00;;;;;;;6.15;2.90;;;21.30;39.60;;;;;;5062084;28;20078;-78
2024/01/25 10:17:29;;;;;;;5.20;2.80;;;21.30;39.60;;;;;;5097103;28;20521;-78
2024/01/25 10:19:56;;;;;;;4.38;2.53;;;21.30;39.70;;;;;;5115192;28;20046;-78
2024/01/25 10:22:22;;;;;;;5.60;2.50;;;21.30;39.70;;;;;;5096909;28;20042;-78
2024/01/25 10:24:53;;;;;;;3.50;2.60;;;21.30;39.70;;;;;;5114882;28;20032;-78
2024/01/25 10:27:19;;;;;;;3.75;3.20;;;21.30;39.70;;;;;;5114730;28;20039;-78
2024/01/25 10:29:45;;;;;;;4.20;2.63;;;21.40;39.70;;;;;;5115096;28;20096;-78
2024/01/25 10:32:12;;;;;;;3.67;2.08;;;21.30;39.70;;;;;;5114803;28;20031;-78
2024/01/25 10:34:39;;;;;;;3.85;1.80;;;21.20;39.60;;;;;;5096595;28;20036;-78
2024/01/25 10:37:07;;;;;;;2.17;1.60;;;21.20;39.60;;;;;;5114555;28;20032;-79
2024/01/25 10:39:34;;;;;;;2.03;1.70;;;21.30;39.80;;;;;;5096276;28;20046;-78
2024/01/25 10:42:00;;;;;;;1.55;1.25;;;21.30;39.80;;;;;;5113889;28;20076;-78
2024/01/25 10:44:27;;;;;;;2.35;1.30;;;21.40;39.80;;;;;;5114439;28;20498;-77
2024/01/25 10:46:57;;;;;;;1.20;1.10;;;21.30;39.70;;;;;;5114632;28;20464;-78
2024/01/25 10:49:24;;;;;;;1.73;1.50;;;21.30;39.70;;;;;;5114471;28;20040;-77
2024/01/25 10:51:51;;;;;;;1.98;1.77;;;21.40;39.70;;;;;;5095555;28;20110;-77
2024/01/25 10:54:17;;;;;;;3.28;2.22;;;21.40;39.70;;;;;;5095490;28;20047;-78
2024/01/25 10:56:44;;;;;;;2.15;1.90;;;21.40;39.60;;;;;;5114231;28;20099;-78
2024/01/25 10:59:15;;;;;;;3.25;1.90;;;21.30;39.60;;;;;;5113924;28;20031;-78
2024/01/25 11:01:48;;;;;;;1.70;1.55;;;21.50;39.70;;;;;;5114055;28;20024;-78
2024/01/25 11:04:18;;;;;;;2.38;1.48;;;21.30;39.60;;;;;;5114080;28;20054;-77
2024/01/25 11:06:47;;;;;;;4.72;1.58;;;21.40;39.60;;;;;;5096262;28;20050;-78
2024/01/25 11:09:21;;;;;;;2.92;1.50;;;21.50;39.70;;;;;;5096243;28;20027;-78
2024/01/25 11:11:49;;;;;;;2.08;1.50;;;21.30;39.60;;;;;;5095704;28;20032;-78
2024/01/25 11:14:16;;;;;;;1.33;1.23;;;21.30;39.60;;;;;;5095677;28;20047;-77
2024/01/25 11:16:47;;;;;;;2.80;1.40;;;21.30;39.60;;;;;;5114079;28;20042;-78
2024/01/25 11:19:21;;;;;;;1.65;1.20;;;21.40;39.60;;;;;;5113905;28;20035;-77
2024/01/25 11:21:49;;;;;;;1.75;1.52;;;21.30;39.60;;;;;;5114877;28;20042;-78
2024/01/25 11:24:21;;;;;;;2.58;1.00;;;21.20;39.40;;;;;;5114798;28;20034;-79
2024/01/25 11:26:48;;;;;;;2.55;1.70;;;21.40;39.50;;;;;;5044051;28;20050;-78
2024/01/25 11:29:20;;;;;;;1.83;1.45;;;21.30;39.40;;;;;;5115552;27;20138;-77
2024/01/25 11:31:47;;;;;;;1.67;1.27;;;21.30;39.40;;;;;;5095511;28;20505;-78
2024/01/25 11:34:15;;;;;;;2.65;1.55;;;21.30;39.50;;;;;;5113822;28;20130;-78
2024/01/25 11:36:42;;;;;;;3.80;2.10;;;21.40;39.50;;;;;;5078648;28;20039;-77
2024/01/25 11:39:12;;;;;;;3.13;2.08;;;21.40;39.50;;;;;;5078509;28;20387;-78
2024/01/25 11:41:38;;;;;;;3.70;2.17;;;21.40;39.50;;;;;;5095238;28;20047;-78
2024/01/25 11:44:05;;;;;;;3.03;1.80;;;21.50;39.60;;;;;;5113184;28;20084;-78
2024/01/25 11:46:31;;;;;;;8.25;2.03;;;21.40;39.50;;;;;;5113273;28;20046;-78
2024/01/25 11:49:01;;;;;;;3.13;1.52;;;21.50;39.60;;;;;;5095006;28;20494;-77
2024/01/25 11:51:27;;;;;;;1.15;1.15;;;21.20;39.40;;;;;;5113323;28;20482;-78
2024/01/25 11:53:53;;;;;;;3.90;1.27;;;21.50;39.60;;;;;;5112102;28;20039;-77
2024/01/25 11:56:25;;;;;;;1.50;1.30;;;21.40;39.50;;;;;;5113141;28;20119;-78
2024/01/25 11:58:51;;;;;;;1.30;1.20;;;21.40;39.40;;;;;;5113245;28;20483;-78
2024/01/25 12:01:19;;;;;;;0.88;0.85;;;21.50;39.50;;;;;;5093516;28;20038;-78
2024/01/25 12:03:46;;;;;;;2.83;0.98;;;21.50;39.40;;;;;;5112995;28;20027;-78
2024/01/25 12:06:12;;;;;;;1.60;1.20;;;21.30;39.40;;;;;;5112517;28;20146;-78
2024/01/25 12:08:38;;;;;;;0.90;0.90;;;21.40;39.30;;;;;;5112850;28;20031;-78
2024/01/25 12:11:10;;;;;;;0.80;0.80;;;21.50;39.40;;;;;;5112663;28;20035;-79
2024/01/25 12:13:40;;;;;;;1.40;1.10;;;21.40;39.20;;;;;;5112523;28;20092;-79
2024/01/25 12:16:08;;;;;;;1.20;1.10;;;21.40;39.10;;;;;;5112949;28;20063;-75
2024/01/25 12:18:35;;;;;;;1.67;0.90;;;21.40;39.00;;;;;;5043002;28;20028;-77
2024/01/25 12:21:03;;;;;;;1.23;0.93;;;21.40;39.10;;;;;;5112942;28;20036;-78
2024/01/25 12:23:37;;;;;;;0.95;0.73;;;21.50;38.90;;;;;;5112320;28;20522;-78
2024/01/25 12:26:08;;;;;;;1.95;1.17;;;21.40;38.40;;;;;;5112486;28;20043;-78
2024/01/25 12:28:35;;;;;;;1.48;0.98;;;21.30;38.20;;;;;;5112265;28;20050;-78
2024/01/25 12:31:05;;;;;;;1.45;0.93;;;21.30;38.80;;;;;;5112369;28;20478;-77
2024/01/25 12:33:33;;;;;;;1.30;0.95;;;21.40;39.00;;;;;;5093886;28;20534;-78
2024/01/25 12:36:00;;;;;;;2.47;1.23;;;21.50;39.10;;;;;;5112288;28;20042;-78
2024/01/25 12:38:26;;;;;;;1.42;1.13;;;21.50;39.10;;;;;;5112416;28;20635;-78
2024/01/25 12:40:53;;;;;;;1.38;1.10;;;21.30;39.00;;;;;;5112089;28;20343;-77